Time,TemperatureF,DewpointF,PressureIn,WindDirection,WindDirectionDegrees,WindSpeedMPH,WindSpeedGustMPH,Humidity,HourlyPrecipIn,Conditions,Clouds,dailyrainin,SolarRadiationWatts/m^2,SoftwareType,DateUTC
2013-05-30 00:09:00,58.0,57.2,29.99,SE,138,0.0,1.0,97,0.00,,,0.00,0.00,VWS V14.01,2013-05-30 04:09:00,
2013-05-30 00:19:00,57.7,56.9,29.99,SE,138,0.0,1.0,97,0.00,,,0.00,0.00,VWS V14.01,2013-05-30 04:19:00,
2013-05-30 00:29:00,57.1,56.3,29.99,SE,141,0.0,2.0,97,0.00,,,0.00,0.00,VWS V14.01,2013-05-30 04:29:00,
2013-05-30 00:39:00,57.1,56.3,29.99,SSW,196,0.0,1.0,97,0.00,,,0.00,0.00,VWS V14.01,2013-05-30 04:39:00,
2013-05-30 00:49:00,57.8,57.0,29.99,SSW,210,0.0,3.0,97,0.00,,,0.00,0.00,VWS V14.01,2013-05-30 04:49:00,
2013-05-30 00:59:00,58.3,57.5,29.99,SSW,213,0.0,2.0,97,0.00,,,0.00,0.00,VWS V14.01,2013-05-30 04:59:00,
2013-05-30 01:09:00,58.1,57.3,29.99,SSW,213,0.0,4.0,97,0.00,,,0.00,0.00,VWS V14.01,2013-05-30 05:09:00,
2013-05-30 01:19:00,58.9,58.0,30.00,SW,219,0.0,4.0,97,0.00,,,0.00,0.00,VWS V14.01,2013-05-30 05:19:00,
2013-05-30 01:29:00,59.0,58.2,29.99,SW,215,0.0,6.0,97,0.00,,,0.00,0.00,VWS V14.01,2013-05-30 05:29:00,
2013-05-30 01:39:00,59.0,58.2,29.99,SW,215,0.0,7.0,97,0.00,,,0.00,0.00,VWS V14.01,2013-05-30 05:39:00,
2013-05-30 01:49:00,59.1,58.2,29.99,SW,225,0.0,5.0,97,0.00,,,0.00,0.00,VWS V14.01,2013-05-30 05:49:00,
2013-05-30 01:59:00,59.1,58.2,29.99,SW,225,0.0,6.0,97,0.00,,,0.00,0.00,VWS V14.01,2013-05-30 05:59:00,
2013-05-30 02:09:00,59.0,58.2,30.00,SW,225,0.0,3.0,97,0.00,,CLR,0.00,0.00,VWS V14.01,2013-05-30 06:09:00,
2013-05-30 02:19:00,59.0,58.2,30.00,SW,225,0.0,1.0,97,0.00,,CLR,0.00,0.00,VWS V14.01,2013-05-30 06:19:00,
2013-05-30 02:29:00,59.0,58.2,30.00,SW,225,1.0,1.0,97,0.00,,CLR,0.00,0.00,VWS V14.01,2013-05-30 06:29:00,
2013-05-30 02:39:00,59.0,58.2,30.00,SW,225,0.0,1.0,97,0.00,,CLR,0.00,0.00,VWS V14.01,2013-05-30 06:39:00,
2013-05-30 02:49:00,59.0,58.2,29.99,SW,225,0.0,0.0,97,0.00,,CLR,0.00,0.00,VWS V14.01,2013-05-30 06:49:00,
2013-05-30 02:59:00,59.1,58.2,30.00,SW,225,0.0,1.0,97,0.00,,CLR,0.00,0.00,VWS V14.01,2013-05-30 06:59:00,
2013-05-30 03:09:00,59.0,58.2,30.00,SW,225,0.0,1.0,97,0.00,,CLR,0.00,0.00,VWS V14.01,2013-05-30 07:09:00,
2013-05-30 03:19:00,59.0,58.2,30.00,SW,225,0.0,0.0,97,0.00,,CLR,0.00,0.00,VWS V14.01,2013-05-30 07:19:00,
2013-05-30 03:29:00,59.0,58.2,30.00,SW,225,0.0,1.0,97,0.00,,CLR,0.00,0.00,VWS V14.01,2013-05-30 07:29:00,
2013-05-30 03:39:00,59.2,58.3,30.00,SW,225,0.0,4.0,97,0.00,,CLR,0.00,0.00,VWS V14.01,2013-05-30 07:39:00,
2013-05-30 03:49:00,59.3,58.5,29.99,SW,225,0.0,3.0,97,0.00,,CLR,0.00,0.00,VWS V14.01,2013-05-30 07:49:00,
2013-05-30 03:59:00,59.5,58.7,29.99,SW,225,0.0,3.0,97,0.00,,CLR,0.00,0.00,VWS V14.01,2013-05-30 07:59:00,
2013-05-30 04:09:00,59.3,58.5,30.00,SW,225,0.0,3.0,97,0.00,,CLR,0.00,0.00,VWS V14.01,2013-05-30 08:09:00,
2013-05-30 04:19:00,59.1,58.2,29.99,SW,225,0.0,2.0,97,0.00,,CLR,0.00,0.00,VWS V14.01,2013-05-30 08:19:00,
2013-05-30 04:29:00,59.1,58.2,29.99,SW,225,0.0,2.0,97,0.00,,CLR,0.00,0.00,VWS V14.01,2013-05-30 08:29:00,
2013-05-30 04:39:00,59.2,58.3,29.99,SW,225,0.0,3.0,97,0.00,,CLR,0.00,0.00,VWS V14.01,2013-05-30 08:39:00,
2013-05-30 04:49:00,59.2,58.3,29.99,SW,225,0.0,5.0,97,0.00,,CLR,0.00,0.00,VWS V14.01,2013-05-30 08:49:00,
2013-05-30 04:59:00,59.1,58.2,29.99,SW,225,0.0,5.0,97,0.00,,CLR,0.00,0.00,VWS V14.01,2013-05-30 08:59:00,
2013-05-30 05:09:00,59.2,58.3,29.99,SW,227,0.0,4.0,97,0.00,,CLR,0.00,0.00,VWS V14.01,2013-05-30 09:09:00,
2013-05-30 05:19:00,59.5,58.7,29.99,WSW,248,0.0,4.0,97,0.00,,CLR,0.00,7.00,VWS V14.01,2013-05-30 09:19:00,
2013-05-30 05:29:00,59.5,58.7,30.00,South,184,0.0,4.0,97,0.00,,CLR,0.00,12.00,VWS V14.01,2013-05-30 09:29:00,
2013-05-30 05:39:00,59.5,58.7,30.00,WNW,296,0.0,4.0,97,0.00,,CLR,0.00,18.00,VWS V14.01,2013-05-30 09:39:00,
2013-05-30 05:49:00,59.7,58.8,30.00,WNW,296,0.0,1.0,97,0.00,,CLR,0.00,23.00,VWS V14.01,2013-05-30 09:49:00,
2013-05-30 05:59:00,59.8,59.0,30.01,WNW,294,0.0,1.0,97,0.00,,CLR,0.00,32.00,VWS V14.01,2013-05-30 09:59:00,
2013-05-30 06:09:00,60.0,59.2,30.01,WNW,294,0.0,0.0,97,0.00,,CLR,0.00,86.00,VWS V14.01,2013-05-30 10:09:00,
2013-05-30 06:19:00,60.5,59.7,30.02,WNW,294,0.0,4.0,97,0.00,,CLR,0.00,84.00,VWS V14.01,2013-05-30 10:19:00,
2013-05-30 06:29:00,60.7,59.8,30.02,WNW,294,0.0,2.0,97,0.00,,CLR,0.00,113.00,VWS V14.01,2013-05-30 10:29:00,
2013-05-30 06:39:00,60.8,60.0,30.02,WNW,294,0.0,3.0,97,0.00,,CLR,0.00,132.00,VWS V14.01,2013-05-30 10:39:00,
2013-05-30 06:49:00,61.2,60.3,30.02,WNW,294,0.0,2.0,97,0.00,,CLR,0.00,156.00,VWS V14.01,2013-05-30 10:49:00,
2013-05-30 06:59:00,61.9,61.0,30.02,WNW,294,0.0,2.0,97,0.00,,CLR,0.00,155.00,VWS V14.01,2013-05-30 10:59:00,
2013-05-30 07:09:00,62.6,61.7,30.02,WNW,294,0.0,1.0,97,0.00,,CLR,0.00,174.00,VWS V14.01,2013-05-30 11:09:00,
2013-05-30 07:19:00,63.0,62.1,30.02,WNW,294,1.0,4.0,97,0.00,,CLR,0.00,153.00,VWS V14.01,2013-05-30 11:19:00,
2013-05-30 07:29:00,63.4,62.5,30.02,WNW,294,0.0,4.0,97,0.00,,CLR,0.00,206.00,VWS V14.01,2013-05-30 11:29:00,
2013-05-30 07:39:00,64.0,63.1,30.03,WNW,294,0.0,3.0,97,0.00,,CLR,0.00,285.00,VWS V14.01,2013-05-30 11:39:00,
2013-05-30 07:49:00,64.6,63.7,30.03,West,275,0.0,6.0,97,0.00,,CLR,0.00,308.00,VWS V14.01,2013-05-30 11:49:00,
2013-05-30 07:59:00,65.8,64.9,30.03,WNW,283,0.0,5.0,97,0.00,,CLR,0.00,373.00,VWS V14.01,2013-05-30 11:59:00,
2013-05-30 08:09:00,66.0,65.1,30.04,WNW,284,4.0,7.0,97,0.00,,CLR,0.00,415.00,VWS V14.01,2013-05-30 12:09:00,
2013-05-30 08:19:00,66.9,66.0,30.04,WNW,286,0.0,6.0,97,0.00,,CLR,0.00,394.00,VWS V14.01,2013-05-30 12:19:00,
2013-05-30 08:29:00,67.1,65.9,30.04,WNW,289,0.0,9.0,96,0.00,,CLR,0.00,399.00,VWS V14.01,2013-05-30 12:29:00,
2013-05-30 08:39:00,68.6,66.2,30.04,West,277,1.0,5.0,92,0.00,,CLR,0.00,445.00,VWS V14.01,2013-05-30 12:39:00,
2013-05-30 08:49:00,69.7,64.7,30.04,West,276,0.0,9.0,84,0.00,,CLR,0.00,461.00,VWS V14.01,2013-05-30 12:49:00,
2013-05-30 08:59:00,70.2,64.1,30.05,WNW,285,0.0,7.0,81,0.00,,CLR,0.00,455.00,VWS V14.01,2013-05-30 12:59:00,
2013-05-30 09:09:00,70.8,65.4,30.05,WNW,290,0.0,6.0,83,0.00,,CLR,0.00,482.00,VWS V14.01,2013-05-30 13:09:00,
2013-05-30 09:19:00,71.3,65.2,30.04,WNW,290,0.0,1.0,81,0.00,,CLR,0.00,517.00,VWS V14.01,2013-05-30 13:19:00,
2013-05-30 09:29:00,72.1,65.2,30.04,West,280,0.0,3.0,79,0.00,,CLR,0.00,573.00,VWS V14.01,2013-05-30 13:29:00,
2013-05-30 09:39:00,73.3,65.3,30.04,West,281,0.0,4.0,76,0.00,,CLR,0.00,649.00,VWS V14.01,2013-05-30 13:39:00,
2013-05-30 09:49:00,73.5,63.9,30.03,West,279,0.0,7.0,72,0.00,,CLR,0.00,666.00,VWS V14.01,2013-05-30 13:49:00,
2013-05-30 09:59:00,73.2,64.0,30.04,West,280,4.0,9.0,73,0.00,,CLR,0.00,740.00,VWS V14.01,2013-05-30 13:59:00,
2013-05-30 10:09:00,73.9,64.3,30.04,WNW,283,0.0,7.0,72,0.00,,CLR,0.00,745.00,VWS V14.01,2013-05-30 14:09:00,
2013-05-30 10:19:00,74.7,65.1,30.04,West,269,0.0,6.0,72,0.00,,CLR,0.00,773.00,VWS V14.01,2013-05-30 14:19:00,
2013-05-30 10:29:00,75.3,63.6,30.05,WNW,282,0.0,14.0,67,0.00,,CLR,0.00,812.00,VWS V14.01,2013-05-30 14:29:00,
2013-05-30 10:39:00,75.7,66.0,30.04,NW,318,3.0,8.0,72,0.00,,CLR,0.00,960.00,VWS V14.01,2013-05-30 14:39:00,
2013-05-30 10:49:00,75.5,64.2,30.05,WNW,290,0.0,10.0,68,0.00,,FEW030,0.00,445.00,VWS V14.01,2013-05-30 14:49:00,
2013-05-30 10:59:00,75.1,64.2,30.04,SSW,208,0.0,8.0,69,0.00,,FEW030,0.00,397.00,VWS V14.01,2013-05-30 14:59:00,
2013-05-30 11:09:00,75.4,64.5,30.04,West,261,0.0,9.0,69,0.00,,FEW030,0.00,464.00,VWS V14.01,2013-05-30 15:09:00,
2013-05-30 11:19:00,75.7,64.4,30.04,WSW,248,0.0,11.0,68,0.00,,FEW030,0.00,325.00,VWS V14.01,2013-05-30 15:19:00,
2013-05-30 11:29:00,76.2,65.3,30.04,WNW,286,0.0,7.0,69,0.00,,FEW030,0.00,390.00,VWS V14.01,2013-05-30 15:29:00,
2013-05-30 11:39:00,76.0,63.8,30.04,WSW,257,0.0,12.0,66,0.00,,FEW030,0.00,262.00,VWS V14.01,2013-05-30 15:39:00,
2013-05-30 11:49:00,76.3,64.6,30.04,WNW,284,0.0,7.0,67,0.00,,FEW030,0.00,1016.00,VWS V14.01,2013-05-30 15:49:00,
2013-05-30 11:59:00,76.4,62.9,30.04,West,276,2.0,10.0,63,0.00,,FEW030,0.00,322.00,VWS V14.01,2013-05-30 15:59:00,
2013-05-30 12:09:00,76.3,64.1,30.03,SE,124,1.0,14.0,66,0.00,,FEW030,0.00,997.00,VWS V14.01,2013-05-30 16:09:00,
2013-05-30 12:19:00,77.9,65.2,30.03,WSW,257,0.0,9.0,65,0.00,,FEW030,0.00,1088.00,VWS V14.01,2013-05-30 16:19:00,
2013-05-30 12:29:00,78.2,64.6,30.03,WNW,287,0.0,12.0,63,0.00,,FEW030,0.00,434.00,VWS V14.01,2013-05-30 16:29:00,
2013-05-30 12:39:00,77.9,61.5,30.03,WSW,254,5.0,12.0,57,0.00,,FEW030,0.00,1113.00,VWS V14.01,2013-05-30 16:39:00,
2013-05-30 12:49:00,77.8,62.3,30.03,WNW,302,8.0,15.0,59,0.00,,BKN050,0.00,355.00,VWS V14.01,2013-05-30 16:49:00,
2013-05-30 12:59:00,77.6,62.2,30.03,West,272,0.0,12.0,59,0.00,,BKN050,0.00,267.00,VWS V14.01,2013-05-30 16:59:00,
2013-05-30 13:09:00,78.3,62.3,30.02,North,5,0.0,16.0,58,0.00,,BKN050,0.00,1079.00,VWS V14.01,2013-05-30 17:09:00,
2013-05-30 13:19:00,79.1,61.6,30.02,WNW,286,11.0,20.0,55,0.00,,BKN050,0.00,1078.00,VWS V14.01,2013-05-30 17:19:00,
2013-05-30 13:29:00,79.8,61.7,30.02,WNW,294,3.0,14.0,54,0.00,,BKN050,0.00,1041.00,VWS V14.01,2013-05-30 17:29:00,
2013-05-30 13:39:00,80.2,62.1,30.02,West,279,0.0,15.0,54,0.00,,BKN050,0.00,1020.00,VWS V14.01,2013-05-30 17:39:00,
2013-05-30 13:49:00,80.9,62.2,30.01,West,267,1.0,14.0,53,0.00,,BKN049,0.00,998.00,VWS V14.01,2013-05-30 17:49:00,
2013-05-30 13:59:00,81.3,62.5,30.02,NW,322,0.0,12.0,53,0.00,,BKN049,0.00,976.00,VWS V14.01,2013-05-30 17:59:00,
2013-05-30 14:09:00,81.5,62.7,30.01,West,274,4.0,11.0,53,0.00,,BKN049,0.00,424.00,VWS V14.01,2013-05-30 18:09:00,
2013-05-30 14:19:00,81.5,64.8,30.01,West,259,0.0,14.0,57,0.00,,BKN049,0.00,902.00,VWS V14.01,2013-05-30 18:19:00,
2013-05-30 14:29:00,82.5,63.1,30.00,WSW,253,2.0,9.0,52,0.00,,BKN049,0.00,306.00,VWS V14.01,2013-05-30 18:29:00,
2013-05-30 14:39:00,82.3,62.4,30.01,West,280,1.0,13.0,51,0.00,,BKN049,0.00,856.00,VWS V14.01,2013-05-30 18:39:00,
2013-05-30 14:49:00,82.3,61.8,30.01,WNW,303,0.0,11.0,50,0.00,,BKN060,0.00,898.00,VWS V14.01,2013-05-30 18:49:00,
2013-05-30 14:59:00,82.9,61.8,30.00,WNW,294,0.0,9.0,49,0.00,,BKN060,0.00,846.00,VWS V14.01,2013-05-30 18:59:00,
2013-05-30 15:09:00,82.7,62.2,30.00,West,281,0.0,11.0,50,0.00,,BKN060,0.00,334.00,VWS V14.01,2013-05-30 19:09:00,
2013-05-30 15:19:00,82.9,61.8,30.00,SW,214,0.0,11.0,49,0.00,,BKN060,0.00,888.00,VWS V14.01,2013-05-30 19:19:00,
2013-05-30 15:29:00,83.3,62.2,30.00,West,267,4.0,12.0,49,0.00,,BKN060,0.00,838.00,VWS V14.01,2013-05-30 19:29:00,
2013-05-30 15:39:00,83.5,61.2,30.00,WNW,296,0.0,11.0,47,0.00,,BKN060,0.00,805.00,VWS V14.01,2013-05-30 19:39:00,
2013-05-30 15:49:00,83.6,61.8,29.99,West,277,0.0,13.0,48,0.00,,BKN070,0.00,780.00,VWS V14.01,2013-05-30 19:49:00,
2013-05-30 15:59:00,83.6,61.8,29.99,WNW,290,1.0,12.0,48,0.00,,BKN070,0.00,728.00,VWS V14.01,2013-05-30 19:59:00,
2013-05-30 16:09:00,84.1,61.7,29.99,WSW,258,1.0,11.0,47,0.00,,BKN070,0.00,731.00,VWS V14.01,2013-05-30 20:09:00,
2013-05-30 16:19:00,83.8,61.4,29.99,NW,321,3.0,10.0,47,0.00,,BKN070,0.00,691.00,VWS V14.01,2013-05-30 20:19:00,
2013-05-30 16:29:00,82.9,61.8,29.99,WNW,283,11.0,14.0,49,0.00,,BKN070,0.00,601.00,VWS V14.01,2013-05-30 20:29:00,
2013-05-30 16:39:00,82.3,61.2,29.99,West,275,0.0,12.0,49,0.00,,BKN070,0.00,633.00,VWS V14.01,2013-05-30 20:39:00,
2013-05-30 16:49:00,82.8,63.4,29.99,WSW,241,1.0,9.0,52,0.00,,SCT070,0.00,575.00,VWS V14.01,2013-05-30 20:49:00,
2013-05-30 16:59:00,82.7,62.8,29.99,West,280,4.0,12.0,51,0.00,,SCT070,0.00,489.00,VWS V14.01,2013-05-30 20:59:00,
2013-05-30 17:09:00,82.0,61.5,29.98,WNW,282,1.0,15.0,50,0.00,,SCT070,0.00,411.00,VWS V14.01,2013-05-30 21:09:00,
2013-05-30 17:19:00,81.6,62.3,29.98,WSW,240,0.0,12.0,52,0.00,,SCT070,0.00,183.00,VWS V14.01,2013-05-30 21:19:00,
2013-05-30 17:29:00,81.6,62.8,29.98,WSW,249,0.0,7.0,53,0.00,,SCT070,0.00,429.00,VWS V14.01,2013-05-30 21:29:00,
2013-05-30 17:39:00,82.4,62.5,29.98,West,273,0.0,11.0,51,0.00,,SCT070,0.00,148.00,VWS V14.01,2013-05-30 21:39:00,
2013-05-30 17:49:00,82.1,63.3,29.98,WSW,257,1.0,9.0,53,0.00,,FEW070,0.00,438.00,VWS V14.01,2013-05-30 21:49:00,
2013-05-30 17:59:00,82.7,62.8,29.98,WSW,253,0.0,6.0,51,0.00,,FEW070,0.00,132.00,VWS V14.01,2013-05-30 21:59:00,
2013-05-30 18:09:00,82.5,63.1,29.98,NW,307,3.0,8.0,52,0.00,,FEW070,0.00,371.00,VWS V14.01,2013-05-30 22:09:00,
2013-05-30 18:19:00,82.6,63.2,29.98,WSW,238,0.0,9.0,52,0.00,,FEW070,0.00,309.00,VWS V14.01,2013-05-30 22:19:00,
2013-05-30 18:29:00,82.1,62.8,29.98,WSW,250,0.0,8.0,52,0.00,,FEW070,0.00,271.00,VWS V14.01,2013-05-30 22:29:00,
2013-05-30 18:39:00,81.6,63.4,29.98,WNW,284,0.0,5.0,54,0.00,,FEW070,0.00,221.00,VWS V14.01,2013-05-30 22:39:00,
2013-05-30 18:49:00,81.0,63.3,29.98,West,259,0.0,6.0,55,0.00,,FEW070,0.00,181.00,VWS V14.01,2013-05-30 22:49:00,
2013-05-30 18:59:00,80.3,63.2,29.98,West,263,0.0,5.0,56,0.00,,FEW070,0.00,56.00,VWS V14.01,2013-05-30 22:59:00,
2013-05-30 19:09:00,79.6,63.5,29.98,West,261,0.0,4.0,58,0.00,,FEW070,0.00,44.00,VWS V14.01,2013-05-30 23:09:00,
2013-05-30 19:19:00,79.0,63.5,29.98,West,260,0.0,2.0,59,0.00,,FEW070,0.00,42.00,VWS V14.01,2013-05-30 23:19:00,
2013-05-30 19:29:00,78.5,63.5,29.98,West,259,0.0,4.0,60,0.00,,FEW070,0.00,37.00,VWS V14.01,2013-05-30 23:29:00,
2013-05-30 19:39:00,78.0,63.5,29.98,West,259,0.0,0.0,61,0.00,,FEW070,0.00,32.00,VWS V14.01,2013-05-30 23:39:00,
2013-05-30 19:49:00,77.5,63.5,29.98,West,259,0.0,1.0,62,0.00,,FEW070,0.00,26.00,VWS V14.01,2013-05-30 23:49:00,
2013-05-30 19:59:00,77.0,63.5,29.98,West,259,0.0,1.0,63,0.00,,FEW070,0.00,18.00,VWS V14.01,2013-05-30 23:59:00,
2013-05-30 20:09:00,76.4,63.3,29.99,West,259,0.0,1.0,64,0.00,,FEW070,0.00,12.00,VWS V14.01,2013-05-31 00:09:00,
2013-05-30 20:19:00,75.8,63.6,29.99,West,259,0.0,1.0,66,0.00,,CLR,0.00,5.00,VWS V14.01,2013-05-31 00:19:00,
2013-05-30 20:29:00,75.2,63.5,29.99,West,259,0.0,1.0,67,0.00,,CLR,0.00,0.00,VWS V14.01,2013-05-31 00:29:00,
2013-05-30 20:49:00,74.2,63.4,30.00,West,259,0.0,3.0,69,0.00,,,0.00,0.00,VWS V14.01,2013-05-31 00:49:00,
2013-05-30 20:59:00,73.8,63.4,29.99,West,259,0.0,1.0,70,0.00,,CLR,0.00,0.00,VWS V14.01,2013-05-31 00:59:00,
2013-05-30 21:09:00,73.3,63.3,29.99,West,259,0.0,2.0,71,0.00,,CLR,0.00,0.00,VWS V14.01,2013-05-31 01:09:00,
2013-05-30 21:19:00,72.9,63.3,30.00,West,259,0.0,0.0,72,0.00,,CLR,0.00,0.00,VWS V14.01,2013-05-31 01:19:00,
2013-05-30 21:29:00,72.7,63.5,30.00,West,259,2.0,5.0,73,0.00,,CLR,0.00,0.00,VWS V14.01,2013-05-31 01:29:00,
2013-05-30 21:39:00,72.7,63.5,30.00,West,259,0.0,2.0,73,0.00,,CLR,0.00,0.00,VWS V14.01,2013-05-31 01:39:00,
2013-05-30 21:49:00,72.6,63.5,30.00,West,259,0.0,0.0,73,0.00,,CLR,0.00,0.00,VWS V14.01,2013-05-31 01:49:00,
2013-05-30 21:59:00,72.3,63.6,30.00,West,259,0.0,1.0,74,0.00,,CLR,0.00,0.00,VWS V14.01,2013-05-31 01:59:00,
2013-05-30 22:09:00,71.9,63.5,30.00,West,259,0.0,1.0,75,0.00,,CLR,0.00,0.00,VWS V14.01,2013-05-31 02:09:00,
2013-05-30 22:19:00,71.6,63.6,30.00,West,259,0.0,1.0,76,0.00,,CLR,0.00,0.00,VWS V14.01,2013-05-31 02:19:00,
2013-05-30 22:29:00,71.5,63.5,30.00,West,259,0.0,4.0,76,0.00,,CLR,0.00,0.00,VWS V14.01,2013-05-31 02:29:00,
2013-05-30 22:39:00,71.4,63.5,30.01,West,259,0.0,1.0,76,0.00,,CLR,0.00,0.00,VWS V14.01,2013-05-31 02:39:00,
2013-05-30 22:49:00,71.2,63.6,30.01,West,259,0.0,3.0,77,0.00,,CLR,0.00,0.00,VWS V14.01,2013-05-31 02:49:00,
2013-05-30 22:59:00,71.3,63.3,30.00,West,259,0.0,4.0,76,0.00,,CLR,0.00,0.00,VWS V14.01,2013-05-31 02:59:00,
2013-05-30 23:09:00,71.2,63.3,30.00,West,259,0.0,5.0,76,0.00,,CLR,0.00,0.00,VWS V14.01,2013-05-31 03:09:00,
2013-05-30 23:19:00,70.9,63.3,30.00,West,259,0.0,2.0,77,0.00,,CLR,0.00,0.00,VWS V14.01,2013-05-31 03:19:00,
2013-05-30 23:29:00,70.6,63.4,30.00,West,259,0.0,1.0,78,0.00,,CLR,0.00,0.00,VWS V14.01,2013-05-31 03:29:00,
2013-05-30 23:39:00,70.2,63.4,30.00,West,259,0.0,5.0,79,0.00,,CLR,0.00,0.00,VWS V14.01,2013-05-31 03:39:00,
2013-05-30 23:49:00,69.8,63.0,30.01,West,259,0.0,2.0,79,0.00,,CLR,0.00,0.00,VWS V14.01,2013-05-31 03:49:00,
2013-05-30 23:59:00,69.7,63.3,30.01,West,259,0.0,4.0,80,0.00,,CLR,0.00,0.00,VWS V14.01,2013-05-31 03:59:00,